WEATHER DATA

YESTERDAY
Time Temp. Dewp. Hum. Wind dir Wind speed Wind gust Bar. 1h Prec. 24h Prec.
00:03 18.7 12.7 68 0 0 1013.8 0.0000 0.0000
00:12 18.5 12.7 69 0 0 1013.9 0.0000 0.0000
00:33 18 12.9 72 0 0 1013.7 0.0000 0.0000
00:43 17.8 12.9 73 0 0 1013.7 0.0000 0.0000
00:53 17.7 13 74 0 0 1013.7 0.0000 0.0000
01:03 17.5 13 75 0 0 1013.7 0.0000 0.0000
01:13 17.4 12.9 75 0 0 1013.7 0.0000 0.0000
01:23 17.3 13 76 0 0 1013.8 0.0000 0.0000
01:33 17.2 13.1 77 0 0 1013.8 0.0000 0.0000
01:43 17.1 13 77 0 0 1013.7 0.0000 0.0000
01:53 17.1 13 77 0 0 1013.5 0.0000 0.0000
02:03 17.1 13 77 0 0 1013.3 0.0000 0.0000
02:14 17 13.1 78 0 0 1013.1 0.0000 0.0000
02:24 16.9 12.8 77 0 0 1013.3 0.0000 0.0000
02:34 16.7 12.8 78 0 0 1013.2 0.0000 0.0000
02:44 16.6 12.8 78 0 0 1013.2 0.0000 0.0000
02:54 16.5 12.8 79 0 0 1013 0.0000 0.0000
03:04 16.4 12.8 79 0 0 1013 0.0000 0.0000
03:14 16.3 12.7 79 0 0 1012.8 0.0000 0.0000
03:24 16.1 12.5 79 0 0 1013 0.0000 0.0000
03:34 16 12.6 80 0 0 1012.9 0.0000 0.0000
03:44 15.9 12.5 80 0 0 1012.8 0.0000 0.0000
03:54 15.8 12.4 80 0 0 1012.8 0.0000 0.0000
04:05 15.7 12.5 81 0 0 1013 0.0000 0.0000
04:14 15.7 12.6 82 0 0 1012.9 0.0000 0.0000
04:24 15.7 12.6 82 0 0 1012.9 0.0000 0.0000
04:35 15.6 12.5 82 0 0 1012.8 0.0000 0.0000
04:45 15.6 12.5 82 0 0 1012.7 0.0000 0.0000
04:55 15.7 12.6 82 0 0 1012.5 0.0000 0.0000
05:05 15.7 12.8 83 0 0 1012.7 0.0000 0.0000
05:15 15.8 13.1 84 0 0 1012.6 0.0000 0.0000
05:25 16 13.3 84 0 0 1012.5 0.0000 0.0000
05:35 16.4 13.9 85 0 0 1012.4 0.0000 0.0000
05:45 16.8 14.1 84 0 0 1012.4 0.0000 0.0000
05:55 17 14.3 84 0 0 1012.5 0.0000 0.0000
06:05 17.4 14.5 83 0 0 1012.3 0.0000 0.0000
06:15 17.7 14.8 83 0 0 1012.4 0.0000 0.0000
06:26 18.3 15.2 82 0 0 1012.3 0.0000 0.0000
06:35 18.7 15.4 81 0 0 1012.3 0.0000 0.0000
06:45 19.1 15.8 81 0 0 1012.3 0.0000 0.0000
06:56 19.6 16.3 81 0 0 1012.5 0.0000 0.0000
07:06 20 16.4 80 0 0 1012.3 0.0000 0.0000
07:16 20.3 16.7 80 0 0 1012.6 0.0000 0.0000
07:25 20.6 16.8 79 0 0 1012.6 0.0000 0.0000
07:36 20.8 16.8 78 0 0 1012.2 0.0000 0.0000
07:46 21.1 16.9 77 0 0 1012.2 0.0000 0.0000
07:56 21.3 16.9 76 0 0 1012.1 0.0000 0.0000
08:07 21.4 16.8 75 0 0 1011.9 0.0000 0.0000
08:16 21.7 16.9 74 0 0 1012.1 0.0000 0.0000
08:26 21.8 16.7 73 0 0 1012 0.0000 0.0000
08:36 22 16.9 73 0 0 1011.9 0.0000 0.0000
08:47 22.2 16.9 72 0 0 1012 0.0000 0.0000
08:57 22.3 16.8 71 0 0 1011.9 0.0000 0.0000
09:06 22.4 16.9 71 0 0 1011.9 0.0000 0.0000
09:17 22.3 16.3 69 0 0 1011.8 0.0000 0.0000
09:27 21.9 16.2 70 0 0 1011.7 0.0000 0.0000
09:37 21.6 16.3 72 0 0 1011.8 0.0000 0.0000
09:47 21.3 16.1 72 0 0 1011.9 0.0000 0.0000
09:57 21 16 73 0 0 1011.9 0.0000 0.0000
10:07 20.8 15.6 72 0 0 1011.9 0.0000 0.0000
10:17 20.7 15.5 72 0 0 1011.7 0.0000 0.0000
10:27 21.1 15.9 72 0 0 1011.7 0.0000 0.0000
10:38 21.2 15.7 71 0 0 1011.7 0.0000 0.0000
10:47 21.8 15.4 67 0 0 1011.5 0.0000 0.0000
10:57 22.3 15.4 65 0 0 1011.5 0.0000 0.0000
11:08 22.7 15.5 64 0 0 1011.4 0.0000 0.0000
11:18 23.1 15.7 63 0 0 1011.5 0.0000 0.0000
11:27 23.1 15.2 61 0 0 1011.4 0.0000 0.0000
11:38 23.3 16.1 64 0 0 1011.5 0.0000 0.0000
11:48 23.4 16.2 64 0 0 1011.4 0.0000 0.0000
11:58 23.7 16.7 65 0 0 1011.4 0.0000 0.0000
12:08 23.8 17.1 66 0 0 1011.4 0.0000 0.0000
12:18 24 17.3 66 0 0 1011.5 0.0000 0.0000
12:28 23.8 16.8 65 0 0 1011.5 0.0000 0.0000
12:38 24.1 16.9 64 0 0 1011.6 0.0000 0.0000
12:48 24.1 16.9 64 0 0 1011.6 0.0000 0.0000
12:59 23.5 16.3 64 0 0 1011.8 0.0000 0.0000
13:08 23.2 16.3 65 0 0 1011.8 0.0000 0.0000
13:18 23.3 16.1 64 0 0 1011.7 0.0000 0.0000
13:29 22.9 15.5 63 0 0 1012.2 0.0000 0.0000
13:39 22.4 15.3 64 0 0 1012.3 0.0000 0.0000
13:49 22.2 15.3 65 0 0 1012.2 0.0000 0.0000
13:59 22.4 15.5 65 0 0 1012.2 0.0000 0.0000
14:09 22.6 15.2 63 0 0 1012.3 0.0000 0.0000
14:19 22.5 14.9 62 0 0 1012.3 0.0000 0.0000
14:29 23.2 15.3 61 0 0 1012.2 0.0000 0.0000
14:40 23.6 15.4 60 0 0 1012.1 0.0000 0.0000
14:49 24.2 14.9 56 0 0 1012 0.0000 0.0000
14:59 24.8 14.9 54 0 0 1011.9 0.0000 0.0000
15:09 24.6 14.4 53 0 0 1012.2 0.0000 0.0000
15:20 24.1 13.9 53 0 0 1012.1 0.0000 0.0000
15:29 23.6 13.5 53 0 0 1012.1 0.0000 0.0000
15:39 23.6 13.8 54 0 0 1012.1 0.0000 0.0000
15:50 23.8 13.4 52 0 0 1012.1 0.0000 0.0000
16:00 23.8 13.7 53 0 0 1012.2 0.0000 0.0000
16:10 23.6 13.8 54 0 0 1012.3 0.0000 0.0000
16:19 23.2 13.4 54 0 0 1012.4 0.0000 0.0000
16:30 23.2 13.7 55 0 0 1012.6 0.0000 0.0000
16:40 23.3 13.2 53 0 0 1012.6 0.0000 0.0000
16:50 22.7 12.3 52 0 0 1012.6 0.0000 0.0000
17:01 22.8 13.3 55 0 0 1012.8 0.0000 0.0000
17:10 22 13.6 59 0 0 1013 0.0000 0.0000
17:20 21.5 13.4 60 0 0 1013 0.0000 0.0000
17:30 21.6 13.8 61 0 0 1012.9 0.0000 0.0000
17:41 22.2 13.8 59 0 0 1012.9 0.0000 0.0000
17:50 22.1 13.5 58 0 0 1013.1 0.0000 0.0000
18:00 21.3 13.2 60 0 0 1013.3 0.0000 0.0000
18:11 20.3 13.5 65 0 0 1013.2 0.0000 0.0000
18:21 19.9 13.4 66 0 0 1013.2 0.0000 0.0000
18:31 19.6 13.1 66 0 0 1013.1 0.0000 0.0000
18:40 19.6 13.1 66 0 0 1013.1 0.0000 0.0000
18:51 20.1 13.6 66 0 0 1013.2 0.0000 0.0000
19:01 20.8 13.7 64 0 0 1013.2 0.0000 0.0000
19:11 21.1 13.8 63 0 0 1013.2 0.0000 0.0000
19:21 21.2 13.4 61 0 0 1013 0.0000 0.0000
19:31 21 13.2 61 0 0 1013.2 0.0000 0.0000
19:41 20.4 12.6 61 0 0 1013.3 0.0000 0.0000
19:51 20.2 12.4 61 0 0 1013.2 0.0000 0.0000
20:02 20 12 60 0 0 1013 0.0000 0.0000
20:12 19.9 11.9 60 0 0 1013.1 0.0000 0.0000
20:21 19.7 11.7 60 0 0 1013.3 0.0000 0.0000
20:32 19.3 11.6 61 0 0 1013.3 0.0000 0.0000
20:42 19.1 11.7 62 0 0 1013.2 0.0000 0.0000
20:52 19 11.8 63 0 0 1013.3 0.0000 0.0000
21:02 18.8 11.6 63 0 0 1013.5 0.0000 0.0000
21:12 18.6 11.4 63 0 0 1013.3 0.0000 0.0000
21:22 18.4 11.2 63 0 0 1013.3 0.0000 0.0000
21:32 18.2 11 63 0 0 1013.4 0.0000 0.0000
21:42 18 11.1 64 0 0 1013.5 0.0000 0.0000
21:53 17.8 11.1 65 0 0 1013.4 0.0000 0.0000
22:02 17.6 11.2 66 0 0 1013.6 0.0000 0.0000
22:12 17.4 11.2 67 0 0 1013.7 0.0000 0.0000
22:23 17.1 11.2 68 0 0 1013.7 0.0000 0.0000
22:33 16.9 11.2 69 0 0 1013.8 0.0000 0.0000
22:43 16.8 11.3 70 0 0 1013.8 0.0000 0.0000
22:53 16.5 11 70 0 0 1013.9 0.0000 0.0000
23:03 16.3 11 71 0 0 1013.8 0.0000 0.0000
23:13 16.2 11.2 72 0 0 1013.9 0.0000 0.0000
23:23 16 11.2 73 0 0 1014 0.0000 0.0000
23:34 15.8 11.2 74 0 0 1013.9 0.0000 0.0000
23:43 15.6 11 74 0 0 1013.9 0.0000 0.0000
23:53 15.5 11.1 75 0 0 1014 0.0000

DAY STATISTIC

2022-07-05
TEMPERATURE
AVERAGE
19.9
HIGH
24.8
14:59
LOW
15.5
23:53
PRESSURE
AVERAGE
1012.7
HIGH
1014.0
23:23
LOW
1011.4
11:08
DEWPOINT
AVERAGE
13.9
HIGH
17.3
12:18
LOW
11.0
21:32
HUMIDITY
AVERAGE
69
HIGH
85
05:35
LOW
52
15:50
WIND SPEED
AVERAGE
0.0
HIGH
0.0
13:05
WIND GUST
AVERAGE
0.0
HIGH
0.0
13:05
WIND DIRECTION
PREVAILING
%
PRECIPITATION
RAIN HOUR
0.0
RAIN DAY
0.0
TEMPERATURE (°C)
LOW
15.5
HIGH
24.8
AVERAGE
19.9
PRESSURE (hpa)
LOW
1011.4
HIGH
1014.0
AVERAGE
1012.7
DEVICE